KTMB/TMB METAR and TAF weather

Enter ICAO airport designator
Station Type Date Time Source
KTMB METAR 2019/12/16 05:53 UTC NOAA

KTMB 160553Z AUTO 11008KT 10SM CLR 23/20 A3012 RMK AO2 SLP200 T02280200 10233 20183 58007


Station Type Date Time Source
KTMB Decoded METAR 2019/12/16 05:53 UTC NOAA

KENDALL-TAMIAMI EXEC AIRPORT , FL, United States (KTMB) 25-39N 080-26W 2M
Dec 16, 2019 - 12:53 AM EST / 2019.12.16 0553 UTC
Wind: from the ESE (110 degrees) at 9 MPH (8 KT):0
Visibility: 10 mile(s):0
Sky conditions: clear
Temperature: 73.0 F (22.8 C)
Dew Point: 68.0 F (20.0 C)
Relative Humidity: 84%
Pressure (altimeter): 30.12 in. Hg (1019 hPa)
Pressure tendency: 0.02 inches (0.7 hPa) lower than three hours ago
ob: KTMB 160553Z AUTO 11008KT 10SM CLR 23/20 A3012 RMK AO2 SLP200 T02280200 10233 20183 58007
cycle: 6

Station Type Date Time Source
KTMB TAF 2019/12/16 06:48 UTC NOAA

TAF KTMB 160545Z 1606/1706 09008KT P6SM SCT035
FM161400 12012G22KT P6SM SCT040
FM170000 10007KT P6SM SCT035

Example: see airport list